Time;durP1;ratioP1;P1;durP2;ratioP2;P2;SDS_P1;SDS_P2;PMS_P1;PMS_P2;Temp;Humidity;BMP_temperature;BMP_pressure;BME280_temperature;BME280_humidity;BME280_pressure;Samples;Min_cycle;Max_cycle;Signal;HPM_P1;HPM_P2
2021/09/16 00:01:42;;;;;;;16.27;3.10;;;23.30;64.30;;;;;;6229233;28;20084;-81
2021/09/16 00:04:45;;;;;;;6.53;2.45;;;23.30;64.40;;;;;;6250570;28;20025;-83
2021/09/16 00:07:48;;;;;;;11.63;1.95;;;23.30;64.60;;;;;;6223750;28;20041;-83
2021/09/16 00:10:50;;;;;;;4.40;1.67;;;23.20;64.60;;;;;;6267731;28;20041;-85
2021/09/16 00:13:51;;;;;;;5.50;1.40;;;23.20;64.40;;;;;;6260031;28;20458;-84
2021/09/16 00:16:52;;;;;;;4.78;1.42;;;23.20;64.40;;;;;;6250515;28;20079;-85
2021/09/16 00:19:53;;;;;;;7.03;1.75;;;23.10;64.30;;;;;;6249680;28;20033;-85
2021/09/16 00:22:54;;;;;;;4.63;2.00;;;23.10;64.30;;;;;;6248584;28;20036;-85
2021/09/16 00:25:59;;;;;;;6.65;1.65;;;23.00;64.20;;;;;;6231966;28;20041;-85
2021/09/16 00:29:03;;;;;;;11.80;1.95;;;23.00;64.30;;;;;;6230624;28;20371;-86
2021/09/16 00:32:05;;;;;;;8.68;2.00;;;23.00;64.30;;;;;;6216734;28;20064;-85
2021/09/16 00:35:07;;;;;;;3.90;1.55;;;22.90;64.20;;;;;;6273863;28;20446;-85
2021/09/16 00:38:08;;;;;;;7.88;1.70;;;22.90;64.40;;;;;;6272802;28;20028;-85
2021/09/16 00:41:09;;;;;;;5.03;1.55;;;22.90;64.50;;;;;;6252402;28;20040;-85
2021/09/16 00:44:11;;;;;;;4.30;1.63;;;22.80;64.70;;;;;;6253488;28;20384;-85
2021/09/16 00:47:13;;;;;;;5.18;1.88;;;22.80;64.70;;;;;;6251467;28;20099;-85
2021/09/16 00:50:15;;;;;;;7.13;1.77;;;22.80;65.60;;;;;;6258173;28;20048;-85
2021/09/16 00:53:17;;;;;;;12.32;2.17;;;22.90;64.90;;;;;;6251479;28;20033;-85
2021/09/16 00:56:22;;;;;;;7.78;1.73;;;22.40;64.60;;;;;;6255511;28;20091;-84
2021/09/16 00:59:25;;;;;;;5.35;2.03;;;22.90;65.00;;;;;;6245897;28;20044;-85
2021/09/16 01:02:27;;;;;;;7.72;1.83;;;21.70;64.20;;;;;;6261415;28;20036;-86
2021/09/16 01:05:28;;;;;;;9.82;2.97;;;23.00;65.00;;;;;;6243200;28;20026;-85
2021/09/16 01:08:29;;;;;;;11.35;3.20;;;23.00;65.20;;;;;;6246548;28;20037;-85
2021/09/16 01:11:32;;;;;;;11.60;2.28;;;23.00;65.40;;;;;;6245580;28;20129;-86
2021/09/16 01:14:35;;;;;;;8.15;1.98;;;23.00;65.50;;;;;;6258803;28;20053;-86
2021/09/16 01:17:36;;;;;;;10.23;2.92;;;22.90;65.50;;;;;;6254043;28;20029;-86
2021/09/16 01:20:38;;;;;;;8.32;1.88;;;22.80;65.70;;;;;;6266523;28;20041;-84
2021/09/16 01:23:39;;;;;;;10.73;2.15;;;22.70;65.80;;;;;;6231894;28;20417;-85
2021/09/16 01:26:42;;;;;;;4.05;1.33;;;22.70;66.00;;;;;;6260036;28;20043;-84
2021/09/16 01:29:44;;;;;;;11.02;2.25;;;22.60;65.90;;;;;;6271745;28;20041;-84
2021/09/16 01:32:46;;;;;;;6.47;1.88;;;22.60;66.00;;;;;;6266222;28;20119;-85
2021/09/16 01:35:47;;;;;;;6.00;2.10;;;22.60;66.00;;;;;;6272065;28;20080;-85
2021/09/16 01:38:48;;;;;;;7.95;1.77;;;22.50;65.90;;;;;;6273093;28;20086;-84
2021/09/16 01:41:49;;;;;;;7.32;2.03;;;22.50;66.00;;;;;;6272812;28;20029;-85
2021/09/16 01:44:50;;;;;;;9.65;1.90;;;22.50;66.00;;;;;;6273969;28;20024;-84
2021/09/16 01:47:53;;;;;;;8.55;2.10;;;22.50;66.10;;;;;;6265726;28;20383;-85
2021/09/16 01:50:54;;;;;;;8.50;1.35;;;22.50;66.20;;;;;;6252594;28;20045;-85
2021/09/16 01:53:55;;;;;;;3.28;1.50;;;22.40;66.20;;;;;;6242676;28;20060;-84
2021/09/16 01:56:56;;;;;;;10.60;1.73;;;22.40;66.20;;;;;;6211829;28;20060;-85
2021/09/16 01:59:57;;;;;;;3.58;1.35;;;22.30;66.20;;;;;;6236243;28;20033;-84
2021/09/16 02:02:58;;;;;;;6.95;1.85;;;22.30;66.30;;;;;;6263945;28;20044;-84
2021/09/16 02:05:59;;;;;;;8.13;1.90;;;22.30;66.30;;;;;;6254717;28;20151;-84
2021/09/16 02:09:00;;;;;;;8.95;1.80;;;22.20;66.30;;;;;;6276947;28;20033;-84
2021/09/16 02:12:01;;;;;;;8.98;1.80;;;22.20;66.40;;;;;;6275834;28;20029;-86
2021/09/16 02:15:02;;;;;;;3.53;1.52;;;22.20;66.60;;;;;;6259845;28;20033;-84
2021/09/16 02:18:03;;;;;;;7.50;1.80;;;22.20;66.40;;;;;;6274687;28;20029;-84
2021/09/16 02:21:04;;;;;;;8.82;2.10;;;22.20;66.40;;;;;;6244871;28;20033;-85
2021/09/16 02:24:05;;;;;;;6.07;1.80;;;22.20;66.40;;;;;;6275936;28;20488;-85
2021/09/16 02:27:06;;;;;;;3.30;1.70;;;22.20;66.20;;;;;;6235352;28;20038;-85
2021/09/16 02:30:08;;;;;;;6.85;1.75;;;22.20;66.30;;;;;;6271903;28;20041;-84
2021/09/16 02:33:09;;;;;;;4.63;1.83;;;22.30;66.50;;;;;;6255620;28;20451;-85
2021/09/16 02:36:11;;;;;;;6.72;1.85;;;22.30;67.40;;;;;;6283492;28;20044;-83
2021/09/16 02:39:12;;;;;;;3.25;1.90;;;22.30;66.50;;;;;;6267953;28;20053;-83
2021/09/16 02:42:13;;;;;;;5.85;1.60;;;22.20;66.50;;;;;;6283927;28;20048;-84
2021/09/16 02:45:15;;;;;;;5.97;2.10;;;22.20;66.60;;;;;;6292042;28;20041;-84
2021/09/16 02:48:16;;;;;;;4.68;1.98;;;22.20;66.70;;;;;;6278023;28;20044;-84
2021/09/16 02:51:17;;;;;;;11.50;1.92;;;22.20;66.70;;;;;;6271708;28;20036;-85
2021/09/16 02:54:18;;;;;;;8.50;2.78;;;22.30;66.70;;;;;;6234346;28;20459;-84
2021/09/16 02:57:19;;;;;;;6.82;2.08;;;22.30;66.60;;;;;;6231640;28;20037;-85
2021/09/16 03:00:20;;;;;;;5.10;1.70;;;22.40;66.60;;;;;;6224293;28;20036;-84
2021/09/16 03:03:21;;;;;;;5.65;2.05;;;22.40;66.50;;;;;;6251094;28;20464;-84
2021/09/16 03:06:22;;;;;;;8.18;2.17;;;22.30;66.60;;;;;;6251563;28;20046;-84
2021/09/16 03:09:23;;;;;;;17.17;2.13;;;22.40;66.80;;;;;;6260784;28;20029;-85
2021/09/16 03:12:24;;;;;;;4.20;1.67;;;22.30;66.90;;;;;;6264619;28;20097;-84
2021/09/16 03:15:25;;;;;;;9.52;2.10;;;22.30;67.00;;;;;;6266555;28;20055;-84
2021/09/16 03:18:26;;;;;;;7.53;2.00;;;22.30;67.10;;;;;;6267631;28;20033;-84
2021/09/16 03:21:27;;;;;;;11.23;2.58;;;22.30;67.20;;;;;;6273227;28;20116;-84
2021/09/16 03:24:29;;;;;;;6.40;2.38;;;22.30;67.20;;;;;;6262363;28;20231;-85
2021/09/16 03:27:30;;;;;;;8.27;2.50;;;22.30;67.20;;;;;;6261042;28;20044;-84
2021/09/16 03:30:31;;;;;;;5.38;2.42;;;22.30;67.20;;;;;;6255783;28;20038;-83
2021/09/16 03:33:32;;;;;;;10.13;2.50;;;22.30;67.20;;;;;;6274272;28;20044;-84
2021/09/16 03:36:33;;;;;;;10.25;2.03;;;22.30;67.20;;;;;;6273383;28;20082;-84
2021/09/16 03:39:34;;;;;;;4.28;2.25;;;22.40;67.20;;;;;;6254268;28;20017;-85
2021/09/16 03:42:35;;;;;;;7.97;2.30;;;22.40;67.30;;;;;;6273722;28;20052;-85
2021/09/16 03:45:36;;;;;;;7.72;2.45;;;22.40;67.50;;;;;;6264417;28;20022;-85
2021/09/16 03:48:37;;;;;;;4.63;2.25;;;22.30;67.40;;;;;;6250549;28;20106;-85
2021/09/16 03:51:38;;;;;;;6.40;2.28;;;22.30;67.50;;;;;;6250154;28;20037;-85
2021/09/16 03:54:39;;;;;;;6.20;2.53;;;22.40;67.70;;;;;;6250851;28;20026;-85
2021/09/16 03:57:40;;;;;;;5.90;2.70;;;22.30;67.50;;;;;;6264562;28;20055;-85
2021/09/16 04:00:41;;;;;;;9.95;2.60;;;22.30;67.50;;;;;;6273555;28;20029;-84
2021/09/16 04:03:42;;;;;;;12.15;2.30;;;22.30;67.50;;;;;;6267246;28;20043;-85
2021/09/16 04:06:43;;;;;;;6.78;2.50;;;22.30;67.40;;;;;;6249015;28;20442;-85
2021/09/16 04:09:44;;;;;;;7.63;2.28;;;22.30;67.40;;;;;;6233151;28;20029;-85
2021/09/16 04:12:46;;;;;;;6.70;2.55;;;22.40;67.50;;;;;;6254440;28;20025;-85
2021/09/16 04:15:47;;;;;;;11.40;3.05;;;22.40;67.50;;;;;;6257867;28;20036;-87
2021/09/16 04:18:49;;;;;;;8.55;3.55;;;22.40;67.50;;;;;;6269467;28;20079;-85
2021/09/16 04:21:50;;;;;;;4.22;2.78;;;22.40;67.50;;;;;;6249334;28;20474;-85
2021/09/16 04:24:51;;;;;;;6.97;2.17;;;22.40;67.50;;;;;;6259219;28;20064;-85
2021/09/16 04:27:52;;;;;;;7.10;3.03;;;22.50;67.60;;;;;;6217393;28;20038;-85
2021/09/16 04:30:53;;;;;;;11.10;3.13;;;22.30;68.20;;;;;;6238378;28;20037;-85
2021/09/16 04:33:54;;;;;;;5.85;3.35;;;23.20;67.90;;;;;;6244385;28;20459;-85
2021/09/16 04:36:55;;;;;;;10.80;3.63;;;22.50;67.40;;;;;;6264128;28;20112;-85
2021/09/16 04:39:56;;;;;;;12.85;3.45;;;22.50;67.80;;;;;;6272696;28;20192;-85
2021/09/16 04:42:57;;;;;;;9.63;2.63;;;22.50;67.70;;;;;;6236742;28;20463;-85
2021/09/16 04:45:59;;;;;;;6.00;2.72;;;22.50;67.90;;;;;;6252246;28;20044;-85
2021/09/16 04:49:00;;;;;;;8.38;2.58;;;22.50;67.80;;;;;;6271134;28;20046;-85
2021/09/16 04:52:01;;;;;;;12.50;2.58;;;22.40;67.70;;;;;;6261737;28;20481;-83
2021/09/16 04:55:03;;;;;;;11.73;2.97;;;22.40;67.80;;;;;;6248251;28;20026;-83
2021/09/16 04:58:04;;;;;;;5.78;2.72;;;22.40;67.90;;;;;;6245918;28;20367;-83
2021/09/16 05:01:05;;;;;;;12.13;3.60;;;22.40;68.00;;;;;;6244719;28;20041;-83
2021/09/16 05:04:06;;;;;;;12.85;2.80;;;22.30;68.10;;;;;;6253527;28;20029;-83
2021/09/16 05:07:07;;;;;;;16.15;3.00;;;22.30;68.20;;;;;;6236286;28;20052;-83
2021/09/16 05:10:10;;;;;;;11.77;3.40;;;22.40;69.30;;;;;;6228073;28;20049;-83
2021/09/16 05:13:12;;;;;;;11.38;2.80;;;22.30;68.30;;;;;;6245693;28;20037;-82
2021/09/16 05:16:13;;;;;;;12.30;2.80;;;22.30;68.40;;;;;;6247504;28;20069;-86
2021/09/16 05:19:15;;;;;;;17.55;3.97;;;22.40;68.50;;;;;;6247038;28;20422;-85
2021/09/16 05:22:16;;;;;;;14.48;3.40;;;22.40;68.40;;;;;;6242326;28;20029;-84
2021/09/16 05:25:18;;;;;;;11.50;4.10;;;22.40;68.50;;;;;;6266845;28;20037;-85
2021/09/16 05:28:19;;;;;;;19.15;4.78;;;22.40;68.60;;;;;;6224092;28;20037;-85
2021/09/16 05:31:20;;;;;;;15.10;4.68;;;22.40;68.70;;;;;;6277058;28;20082;-84
2021/09/16 05:34:21;;;;;;;17.67;6.15;;;22.40;68.60;;;;;;6253971;28;20435;-84
2021/09/16 05:37:26;;;;;;;20.52;4.90;;;22.40;68.70;;;;;;6260246;28;20033;-84
2021/09/16 05:40:27;;;;;;;23.88;5.85;;;22.40;68.80;;;;;;6259446;28;20465;-86
2021/09/16 05:43:28;;;;;;;18.23;5.35;;;22.40;69.10;;;;;;6249595;28;20095;-84
2021/09/16 05:46:33;;;;;;;19.83;5.18;;;22.40;68.90;;;;;;6237444;28;20038;-84
2021/09/16 05:49:35;;;;;;;13.40;4.22;;;22.40;68.80;;;;;;6254871;28;20179;-84
2021/09/16 05:52:37;;;;;;;13.93;3.88;;;23.70;69.60;;;;;;6260956;28;20033;-85
2021/09/16 05:55:40;;;;;;;14.05;5.07;;;22.40;68.60;;;;;;6251030;28;20043;-85
2021/09/16 05:58:41;;;;;;;13.95;5.95;;;22.40;68.70;;;;;;6252686;28;20021;-84
2021/09/16 06:01:43;;;;;;;15.32;5.75;;;22.40;68.60;;;;;;6255168;28;20025;-84
2021/09/16 06:04:44;;;;;;;16.92;5.22;;;22.30;68.60;;;;;;6270317;28;20048;-84
2021/09/16 06:07:45;;;;;;;19.75;5.68;;;22.30;68.60;;;;;;6268002;28;20030;-84
2021/09/16 06:10:46;;;;;;;11.77;5.20;;;22.30;68.80;;;;;;6252372;28;20453;-85
2021/09/16 06:13:48;;;;;;;20.90;5.60;;;22.30;68.90;;;;;;6276387;28;20033;-85
2021/09/16 06:16:52;;;;;;;13.73;5.80;;;22.30;69.00;;;;;;6269629;28;20034;-84
2021/09/16 06:19:52;;;;;;;22.13;6.22;;;22.00;68.70;;;;;;6224461;28;20446;-85
2021/09/16 06:22:53;;;;;;;17.48;5.57;;;22.40;68.80;;;;;;6267815;28;20036;-85
2021/09/16 06:25:54;;;;;;;10.57;4.82;;;22.50;68.70;;;;;;6262195;28;20442;-83
2021/09/16 06:28:56;;;;;;;19.67;5.43;;;22.50;68.70;;;;;;6256739;28;20034;-85
2021/09/16 06:31:56;;;;;;;16.65;5.60;;;22.50;68.40;;;;;;6236136;28;20101;-85
2021/09/16 06:34:58;;;;;;;14.18;6.63;;;22.80;68.50;;;;;;6252809;28;20045;-84
2021/09/16 06:37:59;;;;;;;18.98;8.00;;;22.50;68.30;;;;;;6261557;28;20034;-84
2021/09/16 06:41:00;;;;;;;21.77;9.70;;;22.50;68.50;;;;;;6269137;28;20029;-83
2021/09/16 06:44:01;;;;;;;21.67;8.32;;;22.40;68.70;;;;;;6281432;28;20068;-84
2021/09/16 06:47:02;;;;;;;18.05;7.00;;;22.30;69.10;;;;;;6265023;28;20033;-84
2021/09/16 06:50:04;;;;;;;15.98;7.00;;;22.20;69.60;;;;;;6252536;28;20455;-84
2021/09/16 06:53:05;;;;;;;11.07;5.97;;;22.20;70.00;;;;;;6242398;28;20116;-83
2021/09/16 06:56:06;;;;;;;13.57;5.30;;;22.10;70.30;;;;;;6241753;28;20037;-83
2021/09/16 06:59:08;;;;;;;13.18;5.30;;;22.00;70.60;;;;;;6257252;28;20345;-83
2021/09/16 07:02:09;;;;;;;14.07;5.65;;;22.00;70.70;;;;;;6265178;28;20021;-86
2021/09/16 07:05:10;;;;;;;11.50;5.28;;;22.00;70.90;;;;;;6251629;28;20092;-86
2021/09/16 07:08:11;;;;;;;12.32;5.25;;;22.10;70.90;;;;;;6251942;28;20489;-87
2021/09/16 07:11:12;;;;;;;14.23;5.82;;;22.10;70.80;;;;;;6251910;28;20045;-86
2021/09/16 07:14:15;;;;;;;16.67;6.18;;;22.20;70.80;;;;;;6264638;28;20042;-86
2021/09/16 07:17:17;;;;;;;15.18;5.30;;;22.20;70.70;;;;;;6254564;28;20119;-84
2021/09/16 07:20:19;;;;;;;17.80;5.25;;;22.30;70.60;;;;;;6260539;28;20045;-86
2021/09/16 07:23:22;;;;;;;15.48;5.78;;;22.40;70.40;;;;;;6241112;28;20458;-85
2021/09/16 07:26:26;;;;;;;10.00;3.78;;;22.50;70.00;;;;;;6248869;28;20044;-84
2021/09/16 07:29:28;;;;;;;11.27;5.07;;;22.60;69.60;;;;;;6250479;28;20037;-86
2021/09/16 07:32:29;;;;;;;19.23;5.93;;;22.60;69.30;;;;;;6233396;28;20041;-85
2021/09/16 07:35:30;;;;;;;12.52;4.68;;;22.60;69.20;;;;;;6255925;28;20361;-86
2021/09/16 07:38:31;;;;;;;12.50;4.05;;;22.60;69.00;;;;;;6266753;28;20033;-86
2021/09/16 07:41:32;;;;;;;16.60;5.10;;;22.60;69.10;;;;;;6238366;28;20034;-86
2021/09/16 07:44:34;;;;;;;9.45;4.15;;;22.70;69.00;;;;;;6262756;28;20099;-86
2021/09/16 07:47:35;;;;;;;11.30;3.95;;;22.80;68.70;;;;;;6231382;28;20026;-85
2021/09/16 07:50:36;;;;;;;15.75;5.35;;;22.90;68.50;;;;;;6244489;28;20126;-86
2021/09/16 07:53:37;;;;;;;14.18;4.50;;;23.10;68.20;;;;;;6260975;28;20033;-87
2021/09/16 07:56:43;;;;;;;8.45;2.88;;;23.30;67.80;;;;;;6249308;28;20188;-87
2021/09/16 07:59:44;;;;;;;14.27;3.40;;;23.40;67.10;;;;;;6271280;28;20040;-86
2021/09/16 08:02:50;;;;;;;15.65;3.63;;;23.60;66.80;;;;;;6247502;28;20025;-86
2021/09/16 08:05:51;;;;;;;13.32;4.28;;;23.70;66.10;;;;;;6242638;28;20029;-86
2021/09/16 08:08:52;;;;;;;11.82;3.80;;;23.90;65.90;;;;;;6241497;28;20029;-85
2021/09/16 08:11:53;;;;;;;13.13;3.90;;;24.00;65.60;;;;;;6241955;28;20045;-85
2021/09/16 08:14:54;;;;;;;9.98;3.53;;;24.10;65.10;;;;;;6248006;28;20025;-86
2021/09/16 08:17:56;;;;;;;6.57;3.53;;;24.20;65.00;;;;;;6235828;28;20045;-85
2021/09/16 08:20:57;;;;;;;9.55;3.92;;;24.30;64.80;;;;;;6243861;28;20045;-85
2021/09/16 08:23:58;;;;;;;10.45;3.40;;;24.40;64.70;;;;;;6231599;28;20034;-86
2021/09/16 08:26:59;;;;;;;16.65;4.18;;;24.50;64.30;;;;;;6236344;28;20034;-86
2021/09/16 08:30:01;;;;;;;16.92;4.50;;;23.70;63.10;;;;;;6239264;28;20073;-86
2021/09/16 08:33:03;;;;;;;14.15;4.32;;;24.60;63.50;;;;;;6264129;28;20033;-86
2021/09/16 08:36:06;;;;;;;12.27;3.78;;;24.70;63.30;;;;;;6239454;28;20040;-86
2021/09/16 08:39:07;;;;;;;11.85;5.18;;;24.80;63.20;;;;;;6236394;28;20045;-85
2021/09/16 08:42:08;;;;;;;10.07;3.90;;;24.90;62.80;;;;;;6249191;28;20026;-87
2021/09/16 08:45:17;;;;;;;11.18;4.07;;;25.00;62.40;;;;;;6252251;28;20040;-85
2021/09/16 08:48:18;;;;;;;13.80;4.13;;;25.00;62.10;;;;;;6257470;28;20034;-87
2021/09/16 08:51:19;;;;;;;11.32;4.57;;;25.10;61.70;;;;;;6241228;28;20056;-86
2021/09/16 08:54:21;;;;;;;15.63;4.43;;;25.20;61.60;;;;;;6217094;28;20045;-87
2021/09/16 08:57:23;;;;;;;16.65;4.82;;;25.30;61.50;;;;;;6228753;28;20044;-87
2021/09/16 09:00:30;;;;;;;13.23;4.93;;;25.30;61.10;;;;;;6232332;28;20089;-87
2021/09/16 09:03:32;;;;;;;16.13;4.28;;;25.40;61.00;;;;;;6229098;28;20037;-87
2021/09/16 09:06:38;;;;;;;16.27;4.75;;;25.40;60.80;;;;;;6241935;28;20430;-86
2021/09/16 09:09:43;;;;;;;12.80;3.83;;;25.40;60.60;;;;;;6224452;28;20125;-87
2021/09/16 09:12:44;;;;;;;6.65;3.42;;;25.40;60.60;;;;;;6235118;28;20029;-86
2021/09/16 09:15:48;;;;;;;17.27;7.53;;;25.50;60.20;;;;;;6245353;28;20084;-89
2021/09/16 09:18:51;;;;;;;23.00;8.75;;;25.50;60.20;;;;;;6229289;28;20030;-86
2021/09/16 09:21:53;;;;;;;11.65;6.05;;;25.50;60.10;;;;;;6236450;28;20100;-86
2021/09/16 09:25:01;;;;;;;14.20;4.40;;;25.50;59.90;;;;;;6234153;28;20086;-86
2021/09/16 09:28:02;;;;;;;10.70;4.45;;;25.50;60.00;;;;;;6238586;28;20128;-88
2021/09/16 09:31:15;;;;;;;13.40;4.85;;;25.50;60.00;;;;;;6257727;28;20047;-86
2021/09/16 09:34:22;;;;;;;12.95;4.90;;;25.60;59.90;;;;;;6250163;28;20037;-87
2021/09/16 09:37:23;;;;;;;11.55;3.50;;;25.60;59.60;;;;;;6230014;28;20404;-87
2021/09/16 09:40:26;;;;;;;7.03;3.08;;;25.60;59.30;;;;;;6242819;28;20088;-86
2021/09/16 09:43:32;;;;;;;16.20;4.13;;;25.50;58.90;;;;;;6235614;28;20136;-87
2021/09/16 09:46:44;;;;;;;12.02;3.55;;;25.50;59.00;;;;;;6213725;28;20030;-88
2021/09/16 09:49:56;;;;;;;18.92;9.23;;;25.40;59.30;;;;;;6255114;28;20029;-86
2021/09/16 09:53:13;;;;;;;20.58;5.50;;;25.30;59.40;;;;;;6269214;28;20086;-87
2021/09/16 09:56:20;;;;;;;11.18;4.55;;;25.30;59.50;;;;;;6227349;28;20121;-88
2021/09/16 09:59:21;;;;;;;19.57;4.77;;;25.30;59.60;;;;;;6283157;28;20438;-88
2021/09/16 10:02:27;;;;;;;11.70;3.33;;;25.30;59.50;;;;;;6271585;28;20021;-86
2021/09/16 10:05:31;;;;;;;16.85;4.28;;;25.40;59.40;;;;;;6257523;28;20021;-87
2021/09/16 10:08:35;;;;;;;10.50;3.60;;;25.40;59.90;;;;;;6239890;28;20025;-86
2021/09/16 10:11:38;;;;;;;9.10;2.65;;;25.40;59.60;;;;;;6261299;28;20048;-87
2021/09/16 10:14:40;;;;;;;7.20;2.67;;;25.50;59.30;;;;;;6273875;28;20035;-87
2021/09/16 10:17:43;;;;;;;9.60;3.20;;;25.50;59.20;;;;;;6277405;28;20044;-86
2021/09/16 10:20:46;;;;;;;21.70;3.13;;;25.60;59.00;;;;;;6277920;28;20114;-85
2021/09/16 10:23:48;;;;;;;10.13;3.22;;;25.80;58.90;;;;;;6257054;28;20068;-86
2021/09/16 10:26:49;;;;;;;20.58;7.95;;;25.90;58.60;;;;;;6254790;28;20352;-86
2021/09/16 10:29:50;;;;;;;11.43;4.85;;;26.00;58.30;;;;;;6272255;28;20041;-85
2021/09/16 10:33:06;;;;;;;10.35;3.53;;;26.10;58.70;;;;;;6270893;28;20033;-87
2021/09/16 10:36:10;;;;;;;29.67;14.05;;;26.10;58.10;;;;;;6273831;28;20040;-85
2021/09/16 10:39:19;;;;;;;20.23;7.15;;;26.10;58.00;;;;;;6267664;28;20033;-85
2021/09/16 10:42:54;;;;;;;11.15;3.88;;;26.10;57.80;;;;;;6255140;28;20026;-85
2021/09/16 10:45:55;;;;;;;11.40;4.15;;;26.00;58.00;;;;;;6262086;28;20430;-84
2021/09/16 10:49:18;;;;;;;18.00;5.53;;;26.10;58.20;;;;;;6234990;28;20033;-85
2021/09/16 10:52:25;;;;;;;12.43;4.28;;;26.00;58.20;;;;;;6261951;28;20401;-84
2021/09/16 10:55:37;;;;;;;9.02;3.10;;;26.00;58.30;;;;;;6256040;28;20112;-85
2021/09/16 10:58:51;;;;;;;13.80;4.20;;;25.90;58.30;;;;;;6270052;28;20029;-84
2021/09/16 11:01:53;;;;;;;20.50;4.93;;;25.90;58.30;;;;;;6258236;28;20033;-84
2021/09/16 11:04:57;;;;;;;7.53;3.10;;;25.70;58.30;;;;;;6266688;28;20055;-84
2021/09/16 11:07:59;;;;;;;9.07;3.10;;;25.70;58.50;;;;;;6271973;28;20116;-83
2021/09/16 11:11:02;;;;;;;10.23;4.15;;;25.70;58.50;;;;;;6272141;28;20034;-83
2021/09/16 11:14:03;;;;;;;7.00;3.42;;;25.60;58.50;;;;;;6269700;28;20461;-84
2021/09/16 11:17:07;;;;;;;12.23;4.13;;;25.50;58.60;;;;;;6267401;28;20033;-84
2021/09/16 11:20:12;;;;;;;15.00;4.60;;;25.50;58.80;;;;;;6246802;28;20037;-84
2021/09/16 11:23:18;;;;;;;10.63;3.75;;;25.30;58.90;;;;;;6238847;28;20033;-84
2021/09/16 11:26:21;;;;;;;10.80;3.78;;;25.80;59.60;;;;;;6265694;28;20171;-84
2021/09/16 11:29:22;;;;;;;7.95;2.38;;;25.00;59.80;;;;;;6239300;28;20437;-85
2021/09/16 11:32:37;;;;;;;12.13;3.20;;;24.80;60.40;;;;;;6267603;28;20368;-84
2021/09/16 11:35:38;;;;;;;17.27;3.72;;;24.50;61.00;;;;;;6260001;28;20025;-85
2021/09/16 11:38:39;;;;;;;7.68;3.15;;;24.30;62.10;;;;;;6260268;28;20094;-84
2021/09/16 11:41:40;;;;;;;10.98;4.05;;;24.10;63.40;;;;;;6258172;28;20073;-81
2021/09/16 11:45:16;;;;;;;10.35;3.95;;;23.90;64.10;;;;;;6246072;28;20029;-81
2021/09/16 11:48:24;;;;;;;16.13;3.92;;;23.80;64.90;;;;;;6225857;28;20455;-83
2021/09/16 11:51:25;;;;;;;;;;;23.70;65.20;;;;;;6261136;28;20462;-82
2021/09/16 11:54:28;;;;;;;9.70;3.42;;;23.60;65.50;;;;;;6227249;28;19909;-83
2021/09/16 11:57:29;;;;;;;11.00;3.20;;;23.50;65.60;;;;;;6248480;28;20071;-82
2021/09/16 12:00:40;;;;;;;18.75;3.95;;;23.50;65.90;;;;;;6264781;28;20033;-83
2021/09/16 12:03:43;;;;;;;9.10;2.97;;;23.40;66.30;;;;;;6249410;28;20327;-82
2021/09/16 12:06:54;;;;;;;10.35;3.40;;;23.40;66.60;;;;;;6243949;28;20033;-81
2021/09/16 12:09:59;;;;;;;11.30;4.03;;;23.40;66.60;;;;;;6259396;28;20428;-82
2021/09/16 12:13:00;;;;;;;11.05;3.88;;;23.40;66.90;;;;;;6258812;28;20041;-82
2021/09/16 12:16:06;;;;;;;10.00;3.40;;;23.40;67.10;;;;;;6264222;28;20107;-81
2021/09/16 12:19:11;;;;;;;9.35;3.30;;;23.30;67.30;;;;;;6261759;28;20044;-82
2021/09/16 12:22:12;;;;;;;10.68;3.10;;;23.30;67.40;;;;;;6256667;28;20029;-81
2021/09/16 12:25:13;;;;;;;12.25;3.45;;;23.30;67.50;;;;;;6246313;28;20037;-81
2021/09/16 12:28:14;;;;;;;17.90;2.80;;;23.30;67.60;;;;;;6250926;28;20060;-81
2021/09/16 12:31:16;;;;;;;10.65;2.60;;;23.20;67.60;;;;;;6252752;28;20053;-80
2021/09/16 12:34:18;;;;;;;8.38;2.80;;;23.20;67.60;;;;;;6259278;28;20462;-80
2021/09/16 12:37:19;;;;;;;8.23;2.38;;;23.10;67.70;;;;;;6269751;28;20117;-80
2021/09/16 12:40:25;;;;;;;6.80;2.28;;;23.10;67.90;;;;;;6249026;28;20025;-80
2021/09/16 12:43:26;;;;;;;11.27;2.78;;;23.00;68.00;;;;;;6254541;28;20043;-81
2021/09/16 12:46:28;;;;;;;10.85;3.30;;;23.00;67.90;;;;;;6269933;28;20033;-81
2021/09/16 12:49:48;;;;;;;18.25;3.97;;;22.80;68.00;;;;;;6244018;28;20040;-81
2021/09/16 12:52:49;;;;;;;17.98;3.17;;;22.90;68.50;;;;;;6269075;28;20448;-81
2021/09/16 12:56:08;;;;;;;7.10;2.25;;;22.90;68.60;;;;;;6246535;28;20034;-81
2021/09/16 12:59:24;;;;;;;6.82;2.03;;;22.90;69.00;;;;;;6245798;28;20450;-82
2021/09/16 13:02:27;;;;;;;5.28;1.95;;;22.80;68.90;;;;;;6249557;28;20047;-81
2021/09/16 13:05:32;;;;;;;7.68;1.92;;;22.80;68.70;;;;;;6244083;28;20026;-81
2021/09/16 13:08:40;;;;;;;8.50;2.35;;;22.70;68.50;;;;;;6245947;28;20193;-81
2021/09/16 13:11:41;;;;;;;8.13;2.83;;;22.70;68.70;;;;;;6254496;28;20116;-80
2021/09/16 13:14:44;;;;;;;6.40;2.30;;;22.70;69.00;;;;;;6233375;28;20058;-81
2021/09/16 13:17:45;;;;;;;9.32;2.60;;;22.70;69.20;;;;;;6195485;28;20392;-80
2021/09/16 13:20:46;;;;;;;21.55;5.65;;;22.70;68.90;;;;;;6230359;28;20359;-80
2021/09/16 13:23:49;;;;;;;13.48;4.32;;;22.70;68.60;;;;;;6221056;28;20022;-81
2021/09/16 13:26:50;;;;;;;5.63;2.55;;;22.80;68.70;;;;;;6241309;28;20033;-82
2021/09/16 13:29:52;;;;;;;4.40;2.50;;;22.80;68.60;;;;;;6249895;28;20057;-82
2021/09/16 13:32:53;;;;;;;7.72;2.40;;;22.90;68.20;;;;;;6259087;28;20021;-81
2021/09/16 13:35:54;;;;;;;5.55;2.15;;;23.00;67.90;;;;;;6245385;28;20033;-81
2021/09/16 13:38:56;;;;;;;9.05;2.08;;;23.10;67.40;;;;;;6227168;28;20021;-82
2021/09/16 13:41:57;;;;;;;5.57;2.45;;;23.00;67.20;;;;;;6249455;28;20496;-81
2021/09/16 13:44:58;;;;;;;8.73;2.70;;;23.10;67.00;;;;;;6270501;28;20033;-81
2021/09/16 13:47:59;;;;;;;6.55;2.20;;;23.30;66.90;;;;;;6259522;28;20029;-81
2021/09/16 13:51:00;;;;;;;6.63;2.55;;;23.30;66.50;;;;;;6238311;28;20037;-81
2021/09/16 13:54:01;;;;;;;5.15;2.47;;;23.40;66.50;;;;;;6255924;28;20036;-81
2021/09/16 13:57:04;;;;;;;9.90;2.80;;;23.50;66.40;;;;;;6257782;28;20041;-83
2021/09/16 14:00:06;;;;;;;15.68;6.93;;;23.60;66.40;;;;;;6246807;28;20053;-82
2021/09/16 14:03:08;;;;;;;12.10;3.58;;;23.70;66.30;;;;;;6256477;28;20132;-82
2021/09/16 14:06:09;;;;;;;11.40;3.33;;;23.80;66.00;;;;;;6241164;28;20355;-81
2021/09/16 14:09:10;;;;;;;11.60;3.35;;;24.00;65.80;;;;;;6247027;28;20037;-81
2021/09/16 14:12:13;;;;;;;6.88;2.17;;;24.10;65.40;;;;;;6250854;28;20037;-81
2021/09/16 14:15:14;;;;;;;8.88;2.72;;;24.20;64.90;;;;;;6257219;28;20033;-81
2021/09/16 14:18:16;;;;;;;9.48;1.83;;;24.30;64.50;;;;;;6273807;28;20120;-82
2021/09/16 14:21:17;;;;;;;7.55;2.50;;;24.50;64.10;;;;;;6251824;28;20033;-81
2021/09/16 14:24:18;;;;;;;4.88;2.33;;;24.70;63.50;;;;;;6208907;28;20034;-82
2021/09/16 14:27:19;;;;;;;8.32;3.33;;;24.90;62.80;;;;;;6265431;28;20033;-82
2021/09/16 14:30:22;;;;;;;12.40;2.67;;;25.00;62.30;;;;;;6250147;28;20118;-82
2021/09/16 14:33:24;;;;;;;6.35;2.25;;;25.10;62.00;;;;;;6273242;28;20037;-81
2021/09/16 14:36:25;;;;;;;6.75;2.05;;;25.30;61.10;;;;;;6245029;28;20029;-80
2021/09/16 14:39:26;;;;;;;9.52;2.40;;;25.50;60.50;;;;;;6252426;28;20090;-82
2021/09/16 14:42:27;;;;;;;9.15;3.10;;;25.70;59.90;;;;;;6280039;28;20151;-80
2021/09/16 14:45:28;;;;;;;10.05;3.15;;;25.80;59.10;;;;;;6239055;28;20157;-81
2021/09/16 14:48:29;;;;;;;6.20;2.30;;;26.10;58.80;;;;;;6271921;28;20025;-82
2021/09/16 14:51:30;;;;;;;8.23;1.83;;;26.20;58.20;;;;;;6273857;28;20116;-81
2021/09/16 14:54:31;;;;;;;6.63;2.28;;;26.50;57.80;;;;;;6238958;28;20053;-81
2021/09/16 14:57:32;;;;;;;9.45;2.92;;;26.60;57.50;;;;;;6246486;28;20430;-82
2021/09/16 15:00:33;;;;;;;7.30;2.17;;;26.70;57.10;;;;;;6244217;28;20338;-82
2021/09/16 15:03:34;;;;;;;11.90;3.38;;;26.70;56.90;;;;;;6264984;28;20036;-82
2021/09/16 15:06:35;;;;;;;7.97;2.72;;;26.60;56.90;;;;;;6208766;28;20037;-83
2021/09/16 15:09:36;;;;;;;11.25;3.10;;;26.60;57.10;;;;;;6224636;28;20026;-82
2021/09/16 15:12:38;;;;;;;6.50;2.85;;;26.60;57.30;;;;;;6226745;28;20351;-82
2021/09/16 15:15:39;;;;;;;6.20;2.40;;;26.70;57.30;;;;;;6268551;28;20056;-82
2021/09/16 15:18:40;;;;;;;8.13;2.60;;;26.70;56.90;;;;;;6270624;28;20056;-82
2021/09/16 15:21:41;;;;;;;7.05;2.15;;;26.70;56.80;;;;;;6272783;28;20025;-82
2021/09/16 15:24:42;;;;;;;4.88;2.28;;;26.70;57.00;;;;;;6233291;28;20165;-83
2021/09/16 15:27:46;;;;;;;8.88;2.33;;;26.60;57.00;;;;;;6232517;28;20045;-82
2021/09/16 15:30:47;;;;;;;6.72;1.92;;;26.60;56.90;;;;;;6232924;28;20439;-82
2021/09/16 15:33:50;;;;;;;9.60;2.90;;;26.60;56.70;;;;;;6245075;28;20029;-82
2021/09/16 15:36:51;;;;;;;9.80;2.35;;;26.50;56.80;;;;;;6237803;28;20060;-82
2021/09/16 15:39:52;;;;;;;4.70;2.03;;;26.50;56.80;;;;;;6245979;28;20092;-82
2021/09/16 15:42:53;;;;;;;7.90;2.22;;;26.50;56.70;;;;;;6263141;28;20573;-82